Time;durP1;ratioP1;P1;durP2;ratioP2;P2;SDS_P1;SDS_P2;PMS_P1;PMS_P2;Temp;Humidity;BMP_temperature;BMP_pressure;BME280_temperature;BME280_humidity;BME280_pressure;Samples;Min_cycle;Max_cycle;Signal;HPM_P1;HPM_P2
2022/04/10 00:01:22;;;;;;;3.53;2.05;;;;;;;6.35;69.74;100007.81;4830430;29;20049;-90
2022/04/10 00:03:47;;;;;;;4.15;2.00;;;;;;;6.38;69.64;100014.72;4813545;29;20475;-90
2022/04/10 00:06:13;;;;;;;2.90;1.88;;;;;;;6.42;70.13;100009.06;4814169;29;20153;-90
2022/04/10 00:08:39;;;;;;;5.38;2.35;;;;;;;6.36;69.98;100020.13;4797526;29;20068;-90
2022/04/10 00:11:05;;;;;;;6.72;2.55;;;;;;;6.22;69.79;100012.31;4813327;29;20117;-90
2022/04/10 00:13:30;;;;;;;5.22;2.30;;;;;;;6.22;70.08;100018.47;4813697;29;20129;-90
2022/04/10 00:15:55;;;;;;;5.25;2.30;;;;;;;6.23;70.05;100017.50;4829160;29;20041;-90
2022/04/10 00:18:21;;;;;;;6.13;2.33;;;;;;;6.25;70.09;100014.75;4813534;29;20095;-90
2022/04/10 00:20:46;;;;;;;4.05;2.40;;;;;;;6.29;70.76;100010.91;4813383;29;20059;-90
2022/04/10 00:23:11;;;;;;;4.88;2.50;;;;;;;6.25;70.48;100010.28;4813339;29;20047;-90
2022/04/10 00:25:37;;;;;;;3.92;2.30;;;;;;;6.23;70.90;100011.34;4813332;29;20056;-90
2022/04/10 00:28:02;;;;;;;4.63;2.65;;;;;;;6.16;70.43;100010.94;4812722;29;20030;-90
2022/04/10 00:30:28;;;;;;;5.35;2.50;;;;;;;6.17;71.19;100009.97;4813362;29;20026;-90
2022/04/10 00:32:53;;;;;;;3.47;2.13;;;;;;;6.23;71.10;100019.31;4813240;29;20356;-90
2022/04/10 00:35:19;;;;;;;5.15;2.63;;;;;;;6.22;70.72;100013.16;4814566;29;20372;-90
2022/04/10 00:37:45;;;;;;;6.32;2.50;;;;;;;6.22;70.80;100012.31;4827881;29;20102;-90
2022/04/10 00:40:10;;;;;;;6.13;2.45;;;;;;;6.21;70.60;100008.78;4812849;29;20045;-90
2022/04/10 00:42:36;;;;;;;3.58;2.10;;;;;;;6.21;70.63;100006.16;4812194;29;20056;-90
2022/04/10 00:45:03;;;;;;;4.00;2.15;;;;;;;6.19;71.46;100010.72;4798779;29;20036;-90
2022/04/10 00:47:28;;;;;;;5.20;2.22;;;;;;;6.18;71.08;99998.41;4798184;29;20643;-90
2022/04/10 00:49:56;;;;;;;5.15;2.40;;;;;;;6.12;71.07;99998.81;4811949;29;20100;-90
2022/04/10 00:52:22;;;;;;;4.55;2.38;;;;;;;6.12;71.00;100003.25;4813396;29;20464;-90
2022/04/10 00:54:48;;;;;;;4.70;2.50;;;;;;;6.09;71.43;100001.69;4813226;29;20044;-90
2022/04/10 00:57:14;;;;;;;4.70;2.53;;;;;;;6.07;71.55;100002.75;4812408;29;20034;-90
2022/04/10 00:59:40;;;;;;;4.70;2.78;;;;;;;6.04;71.52;100001.16;4813409;29;20251;-90
2022/04/10 01:02:05;;;;;;;4.18;2.47;;;;;;;6.05;71.71;100007.31;4812026;29;20089;-90
2022/04/10 01:04:31;;;;;;;5.15;2.50;;;;;;;5.98;71.33;100004.25;4811298;29;20037;-90
2022/04/10 01:06:57;;;;;;;3.80;2.53;;;;;;;6.05;71.49;100005.50;4828703;29;20070;-90
2022/04/10 01:09:24;;;;;;;4.18;2.38;;;;;;;6.05;71.96;100007.31;4812321;29;20181;-90
2022/04/10 01:11:52;;;;;;;3.97;2.47;;;;;;;6.01;71.83;100006.69;4813268;29;20380;-89
2022/04/10 01:14:17;;;;;;;4.75;2.70;;;;;;;6.00;71.83;100004.97;4811900;29;20038;-90
2022/04/10 01:16:43;;;;;;;4.18;2.45;;;;;;;6.00;71.58;100004.97;4813797;29;20038;-90
2022/04/10 01:19:08;;;;;;;5.35;2.88;;;;;;;6.08;71.89;100002.63;4827485;29;20048;-90
2022/04/10 01:21:38;;;;;;;4.75;2.70;;;;;;;6.10;72.35;100005.19;4796988;29;20043;-90
2022/04/10 01:24:04;;;;;;;5.18;2.47;;;;;;;6.15;71.81;100008.34;4812817;29;20049;-90
2022/04/10 01:26:30;;;;;;;4.07;2.90;;;;;;;6.22;71.89;100014.97;4812512;29;20046;-90
2022/04/10 01:29:09;;;;;;;3.45;2.53;;;;;;;6.16;72.41;100010.09;4828881;29;20445;-90
2022/04/10 01:31:37;;;;;;;6.18;3.10;;;;;;;6.24;72.15;100008.56;4820054;29;20061;-90
2022/04/10 01:34:05;;;;;;;5.07;2.80;;;;;;;6.25;72.39;100006.78;4812671;29;20038;-90
2022/04/10 01:36:31;;;;;;;4.65;2.47;;;;;;;6.27;72.43;100003.03;4812487;29;20121;-90
2022/04/10 01:38:58;;;;;;;3.70;2.90;;;;;;;6.26;72.41;100008.47;4812954;29;20026;-90
2022/04/10 01:41:25;;;;;;;3.38;2.65;;;;;;;6.28;72.52;100006.56;4834532;29;20477;-89
2022/04/10 01:43:51;;;;;;;4.22;2.80;;;;;;;6.22;72.57;100021.13;4812712;29;20468;-90
2022/04/10 01:46:17;;;;;;;5.10;2.72;;;;;;;6.20;72.44;100014.22;4819719;29;20029;-90
2022/04/10 01:48:42;;;;;;;5.38;2.92;;;;;;;6.25;72.91;100009.44;4812912;29;20086;-90
2022/04/10 01:51:09;;;;;;;4.75;2.60;;;;;;;6.25;72.80;100009.44;4812848;29;20054;-90
2022/04/10 01:53:35;;;;;;;4.00;2.90;;;;;;;6.27;72.87;100008.34;4811975;29;20038;-90
2022/04/10 01:56:01;;;;;;;4.38;3.08;;;;;;;6.29;72.74;100016.22;4819526;29;20034;-90
2022/04/10 01:58:26;;;;;;;3.05;2.60;;;;;;;6.26;72.68;100013.78;4796435;29;20117;-90
2022/04/10 02:00:51;;;;;;;3.35;2.65;;;;;;;6.25;73.24;100012.09;4811825;29;20183;-90
2022/04/10 02:03:17;;;;;;;3.15;2.80;;;;;;;6.23;73.04;100022.81;4826629;29;20134;-90
2022/04/10 02:05:42;;;;;;;5.20;2.75;;;;;;;6.26;73.47;100027.91;4828784;29;20030;-90
2022/04/10 02:08:07;;;;;;;3.65;2.60;;;;;;;6.25;72.95;100026.22;4811079;29;20464;-90
2022/04/10 02:10:33;;;;;;;3.55;2.90;;;;;;;6.26;73.09;100024.41;4828173;29;20034;-90
2022/04/10 02:12:59;;;;;;;4.43;3.03;;;;;;;6.28;72.99;100022.47;4812379;29;20041;-90
2022/04/10 02:15:24;;;;;;;5.45;2.78;;;;;;;6.34;73.27;100021.19;4813350;29;20041;-90
2022/04/10 02:17:49;;;;;;;5.57;2.95;;;;;;;6.42;72.87;100021.50;4810883;29;20103;-90
2022/04/10 02:20:15;;;;;;;6.35;3.25;;;;;;;6.43;72.86;100017.88;4811423;29;20067;-90
2022/04/10 02:22:40;;;;;;;5.22;3.08;;;;;;;6.38;72.90;100014.72;4811062;29;20395;-90
2022/04/10 02:25:05;;;;;;;6.25;3.03;;;;;;;6.35;73.14;100010.47;4813109;29;20448;-90
2022/04/10 02:27:31;;;;;;;5.93;2.63;;;;;;;6.35;72.73;100017.59;4812949;29;20264;-90
2022/04/10 02:29:56;;;;;;;4.03;2.58;;;;;;;6.36;72.75;100021.94;4797609;29;20082;-90
2022/04/10 02:32:23;;;;;;;4.70;2.70;;;;;;;6.23;72.56;100021.97;4813658;29;20340;-90
2022/04/10 02:34:48;;;;;;;4.03;2.58;;;;;;;6.29;73.03;100016.22;4830086;29;20113;-90
2022/04/10 02:37:14;;;;;;;6.88;3.10;;;;;;;6.28;72.33;100020.69;4815904;29;20118;-90
2022/04/10 02:39:39;;;;;;;5.80;3.42;;;;;;;6.27;72.63;100021.63;4799683;29;20071;-90
2022/04/10 02:42:05;;;;;;;4.88;2.97;;;;;;;6.28;72.63;100023.34;4814391;29;20460;-90
2022/04/10 02:44:30;;;;;;;4.18;3.45;;;;;;;6.32;72.99;100030.13;4815502;29;20057;-90
2022/04/10 02:46:56;;;;;;;5.28;3.53;;;;;;;6.31;72.63;100023.13;4800432;29;20029;-90
2022/04/10 02:49:21;;;;;;;5.85;3.72;;;;;;;6.34;72.87;100029.16;4815095;29;20555;-90
2022/04/10 02:51:49;;;;;;;5.32;3.75;;;;;;;6.29;72.75;100030.34;4815590;29;20041;-90
2022/04/10 02:54:15;;;;;;;8.73;3.83;;;;;;;6.20;72.47;100025.69;4829895;29;20042;-90
2022/04/10 02:56:40;;;;;;;8.75;3.65;;;;;;;6.22;72.67;100033.53;4814337;29;20085;-90
2022/04/10 02:59:05;;;;;;;5.40;3.63;;;;;;;6.23;72.64;100032.59;4815675;29;20033;-90
2022/04/10 03:01:31;;;;;;;7.40;4.07;;;;;;;6.21;73.11;100037.16;4814851;29;20038;-89
2022/04/10 03:03:56;;;;;;;5.68;3.90;;;;;;;6.23;72.89;100037.91;4813085;29;20065;-90
2022/04/10 03:06:21;;;;;;;4.97;3.70;;;;;;;6.21;72.80;100029.19;4815039;29;20152;-90
2022/04/10 03:08:47;;;;;;;5.07;4.03;;;;;;;6.25;73.53;100031.53;4814580;29;20034;-90
2022/04/10 03:11:12;;;;;;;5.65;4.15;;;;;;;6.28;73.46;100035.75;4814491;29;20036;-90
2022/04/10 03:13:37;;;;;;;5.20;3.50;;;;;;;6.30;73.62;100040.00;4812531;29;20037;-90
2022/04/10 03:16:03;;;;;;;7.03;3.97;;;;;;;6.31;73.19;100030.22;4799185;29;20435;-90
2022/04/10 03:18:28;;;;;;;4.82;3.95;;;;;;;6.30;73.40;100039.16;4813700;29;20094;-90
2022/04/10 03:20:53;;;;;;;5.07;3.85;;;;;;;6.27;73.34;100040.22;4813509;29;20042;-90
2022/04/10 03:23:18;;;;;;;5.20;3.72;;;;;;;6.25;73.75;100041.28;4813893;29;20033;-90
2022/04/10 03:25:44;;;;;;;3.83;3.25;;;;;;;6.26;73.53;100038.53;4806419;29;20098;-90
2022/04/10 03:28:09;;;;;;;7.45;3.60;;;;;;;6.26;73.44;100027.91;4814729;29;20037;-90
2022/04/10 03:30:34;;;;;;;5.05;3.30;;;;;;;6.27;73.25;100040.22;4829042;29;20030;-90
2022/04/10 03:33:00;;;;;;;6.18;3.03;;;;;;;6.33;73.48;100028.31;4814676;29;20041;-90
2022/04/10 03:35:25;;;;;;;5.47;3.17;;;;;;;6.38;73.83;100033.28;4829901;29;20058;-90
2022/04/10 03:37:50;;;;;;;5.65;2.95;;;;;;;6.39;73.90;100029.69;4837119;29;20042;-90
2022/04/10 03:40:16;;;;;;;5.68;3.05;;;;;;;6.40;73.59;100028.72;4814201;29;20030;-90
2022/04/10 03:42:41;;;;;;;4.55;3.13;;;;;;;6.41;73.24;100035.72;4799004;29;20084;-90
2022/04/10 03:45:10;;;;;;;5.22;3.25;;;;;;;6.31;73.45;100036.38;4814307;29;20040;-90
2022/04/10 03:47:36;;;;;;;6.93;3.58;;;;;;;6.31;73.29;100041.69;4813505;29;20487;-90
2022/04/10 03:50:03;;;;;;;4.47;3.45;;;;;;;6.27;73.58;100042.03;4815392;29;20042;-90
2022/04/10 03:52:28;;;;;;;5.93;3.75;;;;;;;6.28;73.87;100047.22;4814271;29;20026;-90
2022/04/10 03:54:54;;;;;;;5.47;3.30;;;;;;;6.26;73.26;100049.16;4798745;29;20364;-90
2022/04/10 03:57:19;;;;;;;6.30;3.25;;;;;;;6.21;73.32;100053.94;4813200;29;20471;-90
2022/04/10 03:59:44;;;;;;;3.78;3.13;;;;;;;6.19;74.14;100057.66;4814644;29;20187;-90
2022/04/10 04:02:09;;;;;;;3.85;3.10;;;;;;;6.20;73.96;100059.34;4798077;29;20030;-90
2022/04/10 04:04:38;;;;;;;4.72;3.28;;;;;;;6.16;74.30;100057.88;4812105;29;20027;-90
2022/04/10 04:07:03;;;;;;;5.43;3.15;;;;;;;6.15;74.05;100053.47;4814215;29;20408;-89
2022/04/10 04:09:29;;;;;;;5.55;3.40;;;;;;;6.13;74.01;100060.72;4813546;29;20049;-90
2022/04/10 04:11:54;;;;;;;8.48;3.42;;;;;;;6.18;73.78;100069.22;4813744;29;20034;-90
2022/04/10 04:14:20;;;;;;;7.72;3.65;;;;;;;6.15;74.52;100058.78;4813369;29;20030;-90
2022/04/10 04:16:46;;;;;;;6.00;3.60;;;;;;;6.14;73.74;100070.38;4828720;29;20034;-90
2022/04/10 04:19:11;;;;;;;4.63;3.30;;;;;;;6.13;74.48;100073.97;4812072;29;20471;-90
2022/04/10 04:21:36;;;;;;;5.07;3.33;;;;;;;6.06;74.48;100075.38;4814018;29;20237;-90
2022/04/10 04:24:02;;;;;;;5.40;3.53;;;;;;;6.07;74.48;100077.91;4798413;29;20030;-90
2022/04/10 04:26:27;;;;;;;4.70;3.35;;;;;;;6.06;74.12;100076.22;4812804;29;20041;-90
2022/04/10 04:28:52;;;;;;;4.38;3.70;;;;;;;6.05;74.41;100078.97;4814392;29;20247;-90
2022/04/10 04:31:18;;;;;;;5.05;3.60;;;;;;;6.04;74.63;100079.94;4812813;29;20026;-89
2022/04/10 04:33:43;;;;;;;6.20;3.80;;;;;;;6.07;74.60;100083.22;4813858;29;20037;-90
2022/04/10 04:36:08;;;;;;;5.82;3.90;;;;;;;6.07;74.82;100079.72;4813464;29;20030;-90
2022/04/10 04:38:33;;;;;;;7.50;3.65;;;;;;;6.09;75.02;100075.16;4812258;29;20045;-90
2022/04/10 04:40:59;;;;;;;6.05;3.58;;;;;;;6.07;74.48;100079.72;4813330;29;20038;-90
2022/04/10 04:43:24;;;;;;;5.53;3.70;;;;;;;6.08;75.25;100086.72;4811716;29;20057;-90
2022/04/10 04:45:50;;;;;;;5.88;4.10;;;;;;;6.10;74.97;100090.97;4813194;29;20130;-90
2022/04/10 04:48:15;;;;;;;4.25;3.53;;;;;;;6.08;75.07;100084.94;4828093;29;20041;-90
2022/04/10 04:50:43;;;;;;;5.03;3.92;;;;;;;6.08;74.89;100090.22;4811928;29;20122;-90
2022/04/10 04:53:09;;;;;;;5.18;3.78;;;;;;;6.09;75.23;100089.28;4814096;29;20292;-90
2022/04/10 04:55:34;;;;;;;5.68;3.63;;;;;;;6.10;75.05;100093.63;4813225;29;20042;-90
2022/04/10 04:57:59;;;;;;;4.47;3.85;;;;;;;6.07;75.11;100096.50;4812641;29;20057;-90
2022/04/10 05:00:24;;;;;;;6.53;4.30;;;;;;;6.04;75.10;100102.03;4812901;29;20707;-90
2022/04/10 05:02:50;;;;;;;5.13;4.00;;;;;;;6.12;75.75;100096.19;4827952;29;20357;-90
2022/04/10 05:05:15;;;;;;;7.70;4.82;;;;;;;6.10;75.88;100095.44;4812873;29;20034;-89
2022/04/10 05:07:40;;;;;;;5.07;4.03;;;;;;;6.09;75.85;100096.38;4812966;29;20113;-90
2022/04/10 05:10:06;;;;;;;6.38;4.72;;;;;;;6.05;76.09;100108.19;4813119;29;20041;-90
2022/04/10 05:12:32;;;;;;;7.93;4.30;;;;;;;5.97;75.40;100104.25;4811489;29;20762;-90
2022/04/10 05:14:58;;;;;;;8.10;4.68;;;;;;;5.99;75.50;100105.00;4813747;29;20465;-90
2022/04/10 05:17:26;;;;;;;7.53;4.65;;;;;;;5.97;76.17;100103.41;4813497;29;20033;-90
2022/04/10 05:19:52;;;;;;;7.82;4.60;;;;;;;5.97;75.92;100106.91;4812881;29;20040;-90
2022/04/10 05:22:17;;;;;;;6.82;5.10;;;;;;;5.98;76.27;100113.06;4813540;29;20030;-90
2022/04/10 05:24:43;;;;;;;6.22;5.00;;;;;;;5.97;76.08;100112.22;4812662;29;20049;-90
2022/04/10 05:27:10;;;;;;;8.63;5.32;;;;;;;5.94;75.82;100112.41;4812303;29;20655;-90
2022/04/10 05:29:35;;;;;;;8.00;5.10;;;;;;;5.93;76.10;100110.72;4827942;29;20353;-90
2022/04/10 05:32:01;;;;;;;6.78;4.75;;;;;;;5.94;76.20;100116.88;4812966;29;20038;-90
2022/04/10 05:34:27;;;;;;;6.78;4.60;;;;;;;5.96;76.29;100122.94;4835398;29;20037;-90
2022/04/10 05:36:52;;;;;;;6.95;5.03;;;;;;;5.94;76.66;100128.34;4810675;29;20185;-90
2022/04/10 05:39:18;;;;;;;7.80;5.25;;;;;;;5.95;76.67;100124.75;4798422;29;20397;-90
2022/04/10 05:41:43;;;;;;;8.27;5.38;;;;;;;5.91;76.09;100135.66;4813295;29;20118;-90
2022/04/10 05:44:09;;;;;;;8.18;5.47;;;;;;;5.90;76.43;100144.59;4813481;29;20042;-90
2022/04/10 05:46:38;;;;;;;7.22;5.25;;;;;;;5.94;76.66;100138.97;4812845;29;20058;-90
2022/04/10 05:49:04;;;;;;;8.02;5.80;;;;;;;5.90;76.17;100142.78;4797431;29;20050;-90
2022/04/10 05:51:29;;;;;;;8.02;5.80;;;;;;;5.94;76.55;100149.56;4828010;29;20109;-90
2022/04/10 05:53:55;;;;;;;8.38;6.03;;;;;;;5.94;76.57;100141.63;4827659;29;20719;-90
2022/04/10 05:56:20;;;;;;;9.10;6.03;;;;;;;5.96;76.61;100152.13;4813776;29;20042;-89
2022/04/10 05:58:45;;;;;;;8.50;5.90;;;;;;;5.96;76.61;100152.97;4827595;29;20030;-90
2022/04/10 06:01:11;;;;;;;7.78;6.20;;;;;;;5.94;76.97;100154.88;4813100;29;20334;-90
2022/04/10 06:03:36;;;;;;;9.80;5.93;;;;;;;5.98;77.25;100158.19;4812165;29;20033;-90
2022/04/10 06:06:02;;;;;;;8.18;5.95;;;;;;;6.02;76.81;100164.13;4827738;29;20581;-90
2022/04/10 06:08:27;;;;;;;8.35;5.75;;;;;;;5.99;77.03;100166.03;4815375;29;20379;-90
2022/04/10 06:10:52;;;;;;;9.00;5.57;;;;;;;5.98;76.53;100168.81;4816946;29;20033;-90
2022/04/10 06:13:19;;;;;;;7.43;5.57;;;;;;;5.99;77.44;100173.16;4815611;29;21185;-90
2022/04/10 06:15:44;;;;;;;8.23;5.35;;;;;;;5.98;77.10;100174.97;4816245;29;20100;-90
2022/04/10 06:18:10;;;;;;;9.43;5.97;;;;;;;5.98;77.05;100168.81;4813934;29;20072;-90
2022/04/10 06:20:35;;;;;;;8.43;5.63;;;;;;;6.03;77.28;100176.44;4814699;29;20160;-90
2022/04/10 06:23:00;;;;;;;9.13;6.05;;;;;;;6.04;77.64;100171.03;4816629;29;20428;-90
2022/04/10 06:25:26;;;;;;;8.77;5.68;;;;;;;6.09;77.12;100170.72;4815777;29;20380;-89
2022/04/10 06:27:51;;;;;;;11.23;6.10;;;;;;;6.09;76.69;100176.03;4823873;29;20302;-90
2022/04/10 06:30:16;;;;;;;7.07;5.30;;;;;;;6.17;76.98;100187.00;4826541;29;20042;-90
2022/04/10 06:32:42;;;;;;;9.00;6.20;;;;;;;6.24;77.53;100193.59;4814514;29;20295;-90
2022/04/10 06:35:08;;;;;;;8.55;5.63;;;;;;;6.24;77.68;100197.09;4815371;29;20034;-90
2022/04/10 06:37:36;;;;;;;7.65;5.68;;;;;;;6.26;77.05;100191.69;4831280;29;20029;-90
2022/04/10 06:40:01;;;;;;;10.85;5.90;;;;;;;6.34;77.34;100193.81;4830116;29;20083;-90
2022/04/10 06:42:27;;;;;;;8.45;5.78;;;;;;;6.35;77.27;100196.38;4815531;29;20034;-90
2022/04/10 06:44:52;;;;;;;8.70;5.55;;;;;;;6.42;77.27;100202.09;4800121;29;20046;-90
2022/04/10 06:47:18;;;;;;;6.65;5.55;;;;;;;6.40;76.85;100193.41;4828630;29;20049;-90
2022/04/10 06:49:43;;;;;;;10.63;6.10;;;;;;;6.37;76.78;100193.59;4814984;29;20033;-90
2022/04/10 06:52:08;;;;;;;8.32;5.75;;;;;;;6.34;77.04;100194.66;4816323;29;20132;-90
2022/04/10 06:54:33;;;;;;;9.93;6.00;;;;;;;6.35;76.80;100204.34;4814400;29;20040;-90
2022/04/10 06:56:59;;;;;;;9.95;6.00;;;;;;;6.32;77.18;100202.75;4815199;29;20065;-90
2022/04/10 06:59:24;;;;;;;8.63;5.78;;;;;;;6.34;77.38;100209.75;4814674;29;20395;-90
2022/04/10 07:01:49;;;;;;;11.23;6.15;;;;;;;6.38;77.27;100209.44;4815935;29;20046;-90
2022/04/10 07:04:15;;;;;;;9.18;6.25;;;;;;;6.41;77.74;100198.59;4814541;29;20105;-90
2022/04/10 07:06:46;;;;;;;9.07;6.30;;;;;;;6.39;77.25;100203.16;4831274;29;20092;-90
2022/04/10 07:09:11;;;;;;;8.98;6.43;;;;;;;6.37;77.49;100205.06;4815782;29;20038;-90
2022/04/10 07:11:37;;;;;;;9.38;5.93;;;;;;;6.37;77.68;100207.72;4815528;29;20408;-90
2022/04/10 07:14:02;;;;;;;10.73;5.75;;;;;;;6.45;77.81;100210.72;4814234;29;20086;-90
2022/04/10 07:16:27;;;;;;;11.20;6.68;;;;;;;6.40;77.92;100220.81;4830698;29;20103;-90
2022/04/10 07:18:52;;;;;;;10.23;6.30;;;;;;;6.37;77.91;100217.50;4813276;29;20046;-90
2022/04/10 07:23:41;;;;;;;6.88;5.32;;;;;;;6.51;77.91;100220.91;4814127;29;20094;-90
2022/04/10 07:24:03;;;;;;;9.15;6.25;;;;;;;6.46;78.24;100232.81;4817370;29;20121;-90
2022/04/10 07:26:29;;;;;;;10.00;6.43;;;;;;;6.47;78.20;100231.84;4814138;29;20303;-89
2022/04/10 07:28:55;;;;;;;10.90;6.53;;;;;;;6.49;77.96;100229.94;4814149;29;20449;-89
2022/04/10 07:31:20;;;;;;;10.63;6.55;;;;;;;6.47;78.08;100222.06;4812907;29;20037;-89
2022/04/10 07:33:46;;;;;;;11.32;6.72;;;;;;;6.47;78.46;100230.03;4814478;29;20378;-89
2022/04/10 07:36:11;;;;;;;9.98;6.40;;;;;;;6.43;77.81;100225.06;4814554;29;20039;-89
2022/04/10 07:38:36;;;;;;;9.65;6.57;;;;;;;6.48;78.51;100222.94;4799857;29;20714;-90
2022/04/10 07:41:02;;;;;;;8.98;6.07;;;;;;;6.45;78.16;100231.09;4828408;29;20125;-90
2022/04/10 07:43:27;;;;;;;10.52;6.70;;;;;;;6.44;78.62;100243.53;4814148;29;20097;-90
2022/04/10 07:48:36;;;;;;;8.27;5.78;;;;;;;6.49;78.82;100243.22;4816431;29;20107;-89
2022/04/10 07:51:02;;;;;;;9.95;6.88;;;;;;;6.45;78.43;100247.91;4814967;29;20030;-89
2022/04/10 07:53:28;;;;;;;11.10;6.40;;;;;;;6.45;78.90;100255.00;4828984;29;20113;-90
2022/04/10 07:55:53;;;;;;;9.35;6.65;;;;;;;6.46;78.78;100249.59;4813642;29;20037;-90
2022/04/10 07:58:18;;;;;;;9.32;6.22;;;;;;;6.45;78.80;100255.00;4813718;29;20038;-90
2022/04/10 08:00:44;;;;;;;9.65;6.22;;;;;;;6.45;78.44;100257.66;4813095;29;20057;-89
2022/04/10 08:03:10;;;;;;;9.43;6.28;;;;;;;6.45;78.71;100255.88;4813613;29;20030;-89
2022/04/10 08:05:35;;;;;;;11.02;6.90;;;;;;;6.52;78.69;100265.13;4812868;29;20941;-90
2022/04/10 08:08:01;;;;;;;12.15;6.80;;;;;;;6.55;78.99;100266.72;4813955;29;20110;-90
2022/04/10 08:10:28;;;;;;;10.40;6.72;;;;;;;6.54;78.49;100270.31;4812297;29;20026;-89
2022/04/10 08:12:53;;;;;;;10.20;6.30;;;;;;;6.49;78.91;100270.63;4813683;29;20033;-89
2022/04/10 08:15:19;;;;;;;9.43;6.60;;;;;;;6.55;78.05;100282.66;4814470;29;20338;-89
2022/04/10 08:17:44;;;;;;;11.98;6.53;;;;;;;6.55;79.01;100282.66;4812916;29;20037;-89
2022/04/10 08:20:10;;;;;;;11.77;6.93;;;;;;;6.56;78.45;100284.34;4813165;29;20104;-89
2022/04/10 08:22:36;;;;;;;8.57;6.20;;;;;;;6.57;78.35;100284.25;4814235;29;20074;-89
2022/04/10 08:25:12;;;;;;;9.05;6.68;;;;;;;6.60;78.62;100292.00;4798201;29;20046;-89
2022/04/10 08:27:38;;;;;;;11.57;6.68;;;;;;;6.63;78.54;100290.97;4813959;29;20086;-90
2022/04/10 08:30:07;;;;;;;11.48;6.55;;;;;;;6.67;78.51;100288.97;4812710;29;20034;-90
2022/04/10 08:32:37;;;;;;;8.40;5.95;;;;;;;6.69;78.47;100295.03;4813787;29;20049;-90
2022/04/10 08:35:03;;;;;;;12.60;6.25;;;;;;;6.69;78.47;100289.72;4812756;29;20266;-90
2022/04/10 08:37:29;;;;;;;10.75;6.57;;;;;;;6.67;78.33;100296.94;4798682;29;20410;-90
2022/04/10 08:39:54;;;;;;;8.82;6.07;;;;;;;6.70;78.14;100297.56;4813086;29;20090;-89
2022/04/10 08:42:20;;;;;;;11.88;5.97;;;;;;;6.70;78.30;100292.25;4813611;29;20086;-89
2022/04/10 08:44:46;;;;;;;8.35;5.20;;;;;;;6.75;77.58;100297.25;4798996;29;20033;-90
2022/04/10 08:47:15;;;;;;;9.70;5.30;;;;;;;6.70;76.57;100294.91;4813255;29;20461;-89
2022/04/10 08:49:40;;;;;;;6.93;4.53;;;;;;;6.68;76.04;100298.63;4813103;29;20154;-90
2022/04/10 08:52:07;;;;;;;7.88;3.67;;;;;;;6.65;73.89;100302.34;4813067;29;20125;-90
2022/04/10 08:54:33;;;;;;;7.63;4.55;;;;;;;6.68;73.52;100299.50;4797840;29;20472;-89
2022/04/10 08:56:59;;;;;;;9.15;4.70;;;;;;;6.72;74.76;100300.97;4812683;29;20338;-90
2022/04/10 08:59:25;;;;;;;6.63;4.20;;;;;;;6.78;74.54;100297.91;4820672;29;20376;-89
2022/04/10 09:01:54;;;;;;;7.95;4.60;;;;;;;6.74;73.40;100304.38;4827577;29;20027;-89
2022/04/10 09:04:20;;;;;;;7.20;3.83;;;;;;;6.73;72.24;100302.69;4812620;29;20030;-89
2022/04/10 09:07:02;;;;;;;8.20;3.58;;;;;;;6.63;69.39;100307.78;4812574;29;20058;-89
2022/04/10 09:09:29;;;;;;;5.65;3.25;;;;;;;6.63;68.96;100302.47;4820563;29;20528;-90
2022/04/10 09:11:54;;;;;;;5.95;3.00;;;;;;;6.61;67.05;100311.47;4814795;29;20197;-89
2022/04/10 09:14:21;;;;;;;6.78;3.13;;;;;;;6.66;67.32;100309.38;4835010;29;20041;-90
2022/04/10 09:16:47;;;;;;;7.53;3.20;;;;;;;6.74;67.02;100303.53;4812397;29;20061;-89
2022/04/10 09:19:12;;;;;;;6.85;3.33;;;;;;;6.77;67.12;100304.16;4812598;29;20038;-89
2022/04/10 09:21:39;;;;;;;6.82;3.40;;;;;;;6.86;67.82;100306.19;4814191;29;20099;-90
2022/04/10 09:24:06;;;;;;;6.13;3.50;;;;;;;6.87;67.17;100309.69;4814052;29;20029;-90
2022/04/10 09:26:50;;;;;;;4.68;3.13;;;;;;;6.93;68.31;100306.63;4815489;29;20121;-89
2022/04/10 09:29:17;;;;;;;6.53;3.75;;;;;;;6.98;68.47;100308.94;4813855;29;20244;-90
2022/04/10 09:31:42;;;;;;;5.53;3.50;;;;;;;6.95;67.78;100305.56;4812925;29;20087;-89
2022/04/10 09:34:09;;;;;;;6.93;3.05;;;;;;;6.99;67.50;100308.84;4829190;29;20133;-89
2022/04/10 09:36:39;;;;;;;5.85;3.22;;;;;;;7.04;67.38;100305.88;4819474;29;20480;-89
2022/04/10 09:39:29;;;;;;;7.57;3.55;;;;;;;7.03;65.99;100306.81;4805674;29;20077;-89
2022/04/10 09:42:06;;;;;;;5.65;3.50;;;;;;;7.03;65.17;100305.00;4814589;29;20053;-91
2022/04/10 09:44:36;;;;;;;7.00;3.47;;;;;;;7.07;64.50;100308.31;4815798;29;20035;-91
2022/04/10 09:47:06;;;;;;;6.50;3.45;;;;;;;7.11;65.23;100300.03;4800901;29;20082;-92
2022/04/10 09:49:34;;;;;;;5.90;3.90;;;;;;;7.15;66.34;100293.53;4817931;29;20110;-91
2022/04/10 09:52:02;;;;;;;7.25;3.45;;;;;;;7.22;66.00;100294.81;4823639;29;20041;-91
2022/04/10 09:54:38;;;;;;;4.88;3.03;;;;;;;7.31;66.64;100293.31;4824185;29;20049;-91
2022/04/10 09:57:06;;;;;;;6.07;3.78;;;;;;;7.34;65.78;100297.56;4815616;29;20055;-91
2022/04/10 09:59:40;;;;;;;6.32;3.58;;;;;;;7.34;65.14;100300.22;4823880;29;20730;-91
2022/04/10 10:02:06;;;;;;;7.78;3.60;;;;;;;7.33;64.69;100304.69;4815679;29;20383;-91
2022/04/10 10:04:37;;;;;;;6.43;3.60;;;;;;;7.33;65.14;100303.84;4801780;29;20026;-91
2022/04/10 10:07:05;;;;;;;7.78;3.35;;;;;;;7.30;65.34;100304.06;4815033;29;20057;-91
2022/04/10 10:09:31;;;;;;;4.77;3.77;;;;;;;7.30;64.70;100296.94;4823764;29;20091;-92
2022/04/10 10:11:57;;;;;;;5.03;3.60;;;;;;;7.31;64.36;100297.78;4816704;29;20400;-91
2022/04/10 10:14:22;;;;;;;5.45;3.90;;;;;;;7.26;64.95;100309.59;4816560;29;20107;-91
2022/04/10 10:16:47;;;;;;;5.35;3.88;;;;;;;7.25;64.63;100299.06;4815775;29;20060;-91
2022/04/10 10:19:13;;;;;;;6.32;3.97;;;;;;;7.24;64.98;100298.22;4815799;29;20516;-92
2022/04/10 10:21:39;;;;;;;6.65;3.80;;;;;;;7.22;64.08;100297.47;4815124;29;20038;-91
2022/04/10 10:24:05;;;;;;;7.45;3.85;;;;;;;7.25;64.59;100293.75;4815783;29;20034;-92
2022/04/10 10:26:51;;;;;;;8.02;4.18;;;;;;;7.30;64.47;100288.94;4815401;29;20038;-91
2022/04/10 10:29:33;;;;;;;4.80;3.60;;;;;;;7.37;64.65;100287.53;4832183;29;20862;-91
2022/04/10 10:32:12;;;;;;;6.65;3.50;;;;;;;7.37;63.72;100286.69;4837962;29;20062;-91
2022/04/10 10:34:39;;;;;;;5.20;3.45;;;;;;;7.40;63.35;100291.81;4801193;29;20059;-91
2022/04/10 10:37:04;;;;;;;5.35;3.40;;;;;;;7.40;63.02;100289.13;4807472;29;20034;-91
2022/04/10 10:39:31;;;;;;;6.05;3.08;;;;;;;7.44;62.86;100290.63;4816096;29;20083;-92
2022/04/10 10:42:09;;;;;;;5.25;2.95;;;;;;;7.48;62.25;100300.06;4815542;29;20033;-91
2022/04/10 10:44:34;;;;;;;5.93;2.85;;;;;;;7.55;61.63;100285.38;4800656;29;20409;-91
2022/04/10 10:47:08;;;;;;;5.32;3.15;;;;;;;7.54;61.41;100292.50;4815719;29;20038;-91
2022/04/10 10:49:45;;;;;;;4.38;3.20;;;;;;;7.61;60.91;100284.09;4822819;29;20078;-92
2022/04/10 10:52:11;;;;;;;4.82;2.75;;;;;;;7.60;59.51;100293.06;4815264;29;20442;-92
2022/04/10 10:54:45;;;;;;;3.65;2.83;;;;;;;7.61;59.54;100289.44;4813571;29;20040;-92
2022/04/10 10:57:25;;;;;;;4.60;3.13;;;;;;;7.61;59.69;100281.44;4816568;29;20026;-92
2022/04/10 10:59:52;;;;;;;4.13;2.85;;;;;;;7.65;61.14;100285.59;4822861;29;20106;-91
2022/04/10 11:02:19;;;;;;;3.25;2.67;;;;;;;7.69;60.88;100289.72;4822499;29;20061;-91
2022/04/10 11:04:52;;;;;;;6.53;3.20;;;;;;;7.68;60.38;100283.53;4799957;29;20037;-91
2022/04/10 11:07:17;;;;;;;3.30;2.47;;;;;;;7.67;60.16;100279.19;4815779;29;20522;-92
2022/04/10 11:09:56;;;;;;;4.43;2.80;;;;;;;7.70;59.44;100275.44;4815122;29;20174;-91
2022/04/10 11:12:30;;;;;;;3.45;2.50;;;;;;;7.67;58.44;100275.69;4832240;29;20029;-91
2022/04/10 11:14:56;;;;;;;4.15;2.40;;;;;;;7.63;57.94;100275.06;4815114;29;20038;-91
2022/04/10 11:17:32;;;;;;;3.33;2.45;;;;;;;7.58;58.31;100275.38;4816662;29;20516;-91
2022/04/10 11:20:01;;;;;;;3.25;2.38;;;;;;;7.56;58.17;100274.63;4821809;29;20361;-91
2022/04/10 11:22:47;;;;;;;;;;;;;;;7.57;58.39;100279.00;4806733;29;20041;-91
2022/04/10 11:25:12;;;;;;;2.88;2.13;;;;;;;7.58;58.10;100274.53;4815301;29;20406;-91
2022/04/10 11:27:52;;;;;;;4.90;2.55;;;;;;;7.62;58.53;100275.16;4814058;29;20126;-91
2022/04/10 11:30:37;;;;;;;4.60;3.05;;;;;;;7.62;59.59;100276.00;4822091;29;20113;-91
2022/04/10 11:33:04;;;;;;;3.53;2.45;;;;;;;7.64;59.37;100275.91;4815568;29;20034;-91
2022/04/10 11:35:34;;;;;;;5.10;3.13;;;;;;;7.63;58.69;100276.88;4799338;29;20042;-91